Time;durP1;ratioP1;P1;durP2;ratioP2;P2;SDS_P1;SDS_P2;PMS_P1;PMS_P2;Temp;Humidity;BMP_temperature;BMP_pressure;BME280_temperature;BME280_humidity;BME280_pressure;Samples;Min_cycle;Max_cycle;Signal;HPM_P1;HPM_P2
2023/05/19 00:01:00;;;;;;;4.18;2.20;;;;;;;;;;5031851;28;20379;-85
2023/05/19 00:03:26;;;;;;;2.63;2.13;;;;;;;;;;5032212;28;20435;-85
2023/05/19 00:05:53;;;;;;;3.33;2.00;;;;;;;;;;5031255;28;20386;-85
2023/05/19 00:08:19;;;;;;;3.22;1.80;;;;;;;;;;5028991;28;20383;-85
2023/05/19 00:10:46;;;;;;;2.75;1.90;;;;;;;;;;5030640;28;20838;-85
2023/05/19 00:13:12;;;;;;;4.33;2.10;;;;;;;;;;5030284;28;20390;-85
2023/05/19 00:15:38;;;;;;;2.58;1.90;;;;;;;;;;5030780;28;20406;-85
2023/05/19 00:18:07;;;;;;;2.83;1.80;;;;;;;;;;5030401;28;20783;-88
2023/05/19 00:20:33;;;;;;;2.20;1.70;;;;;;;;;;5028462;28;20866;-85
2023/05/19 00:22:59;;;;;;;2.78;2.03;;;;;;;;;;5022330;28;20420;-84
2023/05/19 00:25:26;;;;;;;2.50;2.00;;;;;;;;;;5011957;28;20463;-85
2023/05/19 00:27:52;;;;;;;2.88;1.70;;;;;;;;;;5011926;28;20389;-86
2023/05/19 00:30:18;;;;;;;5.55;2.40;;;;;;;;;;5024817;28;20445;-86
2023/05/19 00:32:44;;;;;;;2.60;1.70;;;;;;;;;;5028851;28;20869;-84
2023/05/19 00:35:10;;;;;;;2.65;1.63;;;;;;;;;;5023369;28;20395;-85
2023/05/19 00:37:36;;;;;;;2.78;1.80;;;;;;;;;;5019854;28;20406;-86
2023/05/19 00:40:04;;;;;;;2.90;1.73;;;;;;;;;;5030972;28;20696;-84
2023/05/19 00:42:31;;;;;;;2.53;1.83;;;;;;;;;;5029382;28;20986;-85
2023/05/19 00:44:57;;;;;;;3.85;2.10;;;;;;;;;;5011579;28;20380;-85
2023/05/19 00:47:23;;;;;;;2.83;2.03;;;;;;;;;;5011625;28;20516;-88
2023/05/19 00:49:49;;;;;;;3.17;2.00;;;;;;;;;;5017633;28;20848;-86
2023/05/19 00:52:15;;;;;;;3.67;1.80;;;;;;;;;;5031718;28;20387;-86
2023/05/19 00:54:42;;;;;;;2.27;1.90;;;;;;;;;;5013900;28;20392;-86
2023/05/19 00:57:07;;;;;;;2.40;1.80;;;;;;;;;;5020333;28;20387;-87
2023/05/19 00:59:33;;;;;;;2.00;1.47;;;;;;;;;;5017775;28;20577;-87
2023/05/19 01:02:01;;;;;;;3.03;1.83;;;;;;;;;;5023691;28;20412;-86
2023/05/19 01:04:33;;;;;;;3.08;1.90;;;;;;;;;;5026168;28;20390;-86
2023/05/19 01:07:00;;;;;;;2.45;1.80;;;;;;;;;;5025988;28;20745;-87
2023/05/19 01:09:26;;;;;;;3.47;1.80;;;;;;;;;;5020517;28;20392;-85
2023/05/19 01:11:52;;;;;;;3.47;1.92;;;;;;;;;;5014294;28;20416;-85
2023/05/19 01:14:18;;;;;;;3.88;2.00;;;;;;;;;;5013268;28;20420;-86
2023/05/19 01:16:50;;;;;;;2.40;1.80;;;;;;;;;;5014648;28;20402;-87
2023/05/19 01:19:16;;;;;;;2.85;1.88;;;;;;;;;;5020996;28;20393;-85
2023/05/19 01:21:53;;;;;;;2.53;1.73;;;;;;;;;;5028256;28;20446;-86
2023/05/19 01:24:31;;;;;;;2.00;1.80;;;;;;;;;;5011772;28;20396;-87
2023/05/19 01:27:06;;;;;;;2.47;1.60;;;;;;;;;;5010945;28;20883;-87
2023/05/19 01:30:00;;;;;;;3.00;1.90;;;;;;;;;;5016980;28;20925;-86
2023/05/19 01:32:26;;;;;;;2.87;1.90;;;;;;;;;;5015385;28;20485;-84
2023/05/19 01:34:53;;;;;;;3.20;1.90;;;;;;;;;;5022502;28;20399;-86
2023/05/19 01:37:21;;;;;;;3.20;2.20;;;;;;;;;;5010962;28;20384;-83
2023/05/19 01:39:47;;;;;;;2.83;1.80;;;;;;;;;;5011549;28;20881;-86
2023/05/19 01:42:14;;;;;;;2.70;1.90;;;;;;;;;;5024945;28;20415;-84
2023/05/19 01:44:40;;;;;;;3.00;2.00;;;;;;;;;;5021860;28;20412;-85
2023/05/19 01:47:06;;;;;;;3.30;2.30;;;;;;;;;;5015307;28;20393;-87
2023/05/19 01:49:32;;;;;;;3.13;2.10;;;;;;;;;;5026872;28;20708;-85
2023/05/19 01:51:58;;;;;;;2.60;2.05;;;;;;;;;;5028505;28;20394;-86
2023/05/19 01:54:24;;;;;;;3.17;2.40;;;;;;;;;;5030931;28;20394;-85
2023/05/19 01:56:53;;;;;;;2.75;2.15;;;;;;;;;;5025414;28;20465;-86
2023/05/19 01:59:34;;;;;;;3.15;2.45;;;;;;;;;;5022236;28;20497;-86
2023/05/19 02:02:01;;;;;;;4.20;2.40;;;;;;;;;;5030732;28;20654;-86
2023/05/19 02:05:03;;;;;;;4.03;2.60;;;;;;;;;;5019169;28;20435;-85
2023/05/19 02:07:41;;;;;;;4.03;2.50;;;;;;;;;;4945169;29;20841;-86
2023/05/19 02:10:11;;;;;;;3.60;2.42;;;;;;;;;;5013596;28;20394;-86
2023/05/19 02:12:39;;;;;;;3.63;2.20;;;;;;;;;;5029888;28;20949;-86
2023/05/19 02:15:13;;;;;;;4.80;2.70;;;;;;;;;;5030647;28;20383;-86
2023/05/19 02:17:41;;;;;;;4.28;2.40;;;;;;;;;;5029649;28;20482;-86
2023/05/19 02:20:11;;;;;;;2.72;2.47;;;;;;;;;;5030695;28;20458;-85
2023/05/19 02:22:37;;;;;;;3.00;2.70;;;;;;;;;;5024844;28;20431;-86
2023/05/19 02:25:03;;;;;;;3.30;2.50;;;;;;;;;;5013948;28;20385;-86
2023/05/19 02:27:29;;;;;;;4.03;2.38;;;;;;;;;;5014264;28;20381;-84
2023/05/19 02:29:55;;;;;;;4.00;2.40;;;;;;;;;;5024546;28;20409;-86
2023/05/19 02:32:21;;;;;;;3.03;2.40;;;;;;;;;;5020495;28;20442;-86
2023/05/19 02:34:47;;;;;;;3.70;2.63;;;;;;;;;;5026601;28;20385;-86
2023/05/19 02:37:13;;;;;;;2.85;2.30;;;;;;;;;;5020541;28;20880;-85
2023/05/19 02:39:39;;;;;;;2.50;2.30;;;;;;;;;;5014293;28;20482;-86
2023/05/19 02:42:05;;;;;;;4.03;2.60;;;;;;;;;;5014186;28;20409;-86
2023/05/19 02:44:31;;;;;;;3.42;2.63;;;;;;;;;;5014101;28;20400;-86
2023/05/19 02:46:57;;;;;;;3.63;2.35;;;;;;;;;;5013736;28;20403;-86
2023/05/19 02:49:23;;;;;;;3.43;2.30;;;;;;;;;;5021311;28;20482;-87
2023/05/19 02:51:49;;;;;;;3.13;2.70;;;;;;;;;;5032975;28;20395;-86
2023/05/19 02:54:15;;;;;;;2.95;2.30;;;;;;;;;;5028232;28;20383;-86
2023/05/19 02:56:41;;;;;;;2.95;2.40;;;;;;;;;;5031084;28;20395;-87
2023/05/19 02:59:07;;;;;;;4.10;2.65;;;;;;;;;;5021669;28;20389;-86
2023/05/19 03:01:33;;;;;;;3.25;2.47;;;;;;;;;;5013507;28;20743;-87
2023/05/19 03:03:59;;;;;;;3.90;2.30;;;;;;;;;;5014181;28;20446;-87
2023/05/19 03:06:25;;;;;;;3.92;2.58;;;;;;;;;;5016373;28;20380;-85
2023/05/19 03:08:51;;;;;;;2.90;2.30;;;;;;;;;;5025848;28;20976;-86
2023/05/19 03:11:17;;;;;;;2.63;2.40;;;;;;;;;;5032865;28;20444;-86
2023/05/19 03:13:43;;;;;;;2.40;2.20;;;;;;;;;;5013610;28;20392;-85
2023/05/19 03:16:12;;;;;;;2.83;2.53;;;;;;;;;;5013550;28;20393;-86
2023/05/19 03:18:38;;;;;;;3.17;2.50;;;;;;;;;;5015679;28;20721;-85
2023/05/19 03:21:04;;;;;;;2.45;2.17;;;;;;;;;;5020789;28;20462;-86
2023/05/19 03:23:30;;;;;;;2.83;2.17;;;;;;;;;;5032895;28;20443;-86
2023/05/19 03:25:56;;;;;;;3.30;2.40;;;;;;;;;;5033252;28;20876;-85
2023/05/19 03:28:22;;;;;;;3.67;2.65;;;;;;;;;;5033149;28;20395;-86
2023/05/19 03:30:49;;;;;;;2.85;2.50;;;;;;;;;;5016164;28;20380;-86
2023/05/19 03:33:15;;;;;;;3.00;2.72;;;;;;;;;;5023030;28;20470;-86
2023/05/19 03:35:43;;;;;;;5.78;2.58;;;;;;;;;;5029170;28;20406;-86
2023/05/19 03:38:09;;;;;;;3.83;3.00;;;;;;;;;;5020500;28;20764;-86
2023/05/19 03:40:35;;;;;;;3.65;3.00;;;;;;;;;;5019320;28;20392;-88
2023/05/19 03:43:01;;;;;;;3.50;2.70;;;;;;;;;;5031153;28;20420;-85
2023/05/19 03:45:27;;;;;;;3.27;2.70;;;;;;;;;;5021135;28;20442;-85
2023/05/19 03:47:53;;;;;;;2.88;2.60;;;;;;;;;;5016229;28;20414;-87
2023/05/19 03:50:20;;;;;;;3.20;2.90;;;;;;;;;;5031698;28;20465;-86
2023/05/19 03:52:46;;;;;;;3.60;2.92;;;;;;;;;;5030329;28;20390;-86
2023/05/19 03:55:18;;;;;;;4.20;2.70;;;;;;;;;;5023899;28;20477;-86
2023/05/19 03:57:45;;;;;;;4.45;2.88;;;;;;;;;;5028133;28;20417;-85
2023/05/19 04:00:11;;;;;;;3.90;2.92;;;;;;;;;;5017214;28;20389;-85
2023/05/19 04:02:37;;;;;;;3.85;3.42;;;;;;;;;;5029513;28;20828;-86
2023/05/19 04:05:03;;;;;;;3.83;3.00;;;;;;;;;;5026839;28;20402;-86
2023/05/19 04:07:30;;;;;;;3.65;3.28;;;;;;;;;;5030524;28;20492;-87
2023/05/19 04:09:56;;;;;;;5.05;3.28;;;;;;;;;;5028536;28;20387;-86
2023/05/19 04:12:22;;;;;;;3.92;3.42;;;;;;;;;;5031887;28;20738;-86
2023/05/19 04:14:48;;;;;;;4.07;3.60;;;;;;;;;;5032207;28;20383;-87
2023/05/19 04:17:14;;;;;;;3.70;3.30;;;;;;;;;;5031935;28;20394;-86
2023/05/19 04:19:40;;;;;;;3.72;3.33;;;;;;;;;;5032170;28;20375;-87
2023/05/19 04:22:09;;;;;;;5.28;3.42;;;;;;;;;;5031530;28;20758;-86
2023/05/19 04:24:35;;;;;;;4.68;3.60;;;;;;;;;;5032188;28;20383;-86
2023/05/19 04:27:03;;;;;;;4.50;3.70;;;;;;;;;;5034247;28;20382;-87
2023/05/19 04:29:29;;;;;;;4.88;3.80;;;;;;;;;;5032323;28;20547;-88
2023/05/19 04:31:59;;;;;;;6.43;3.60;;;;;;;;;;5023687;28;20397;-86
2023/05/19 04:34:27;;;;;;;5.00;3.55;;;;;;;;;;5017936;28;20379;-86
2023/05/19 04:36:54;;;;;;;4.65;3.58;;;;;;;;;;5014262;28;20381;-86
2023/05/19 04:39:20;;;;;;;4.38;3.72;;;;;;;;;;5014271;28;20817;-87
2023/05/19 04:41:47;;;;;;;4.25;3.60;;;;;;;;;;5021428;28;20390;-87
2023/05/19 04:44:16;;;;;;;4.15;3.70;;;;;;;;;;5018365;28;20385;-86
2023/05/19 04:46:44;;;;;;;5.07;3.80;;;;;;;;;;5024718;28;20393;-87
2023/05/19 04:49:13;;;;;;;4.80;3.80;;;;;;;;;;5015324;28;20472;-87
2023/05/19 04:51:40;;;;;;;6.10;3.95;;;;;;;;;;5014571;28;20385;-86
2023/05/19 04:54:09;;;;;;;4.60;4.03;;;;;;;;;;5025124;28;20862;-87
2023/05/19 04:56:35;;;;;;;5.38;3.60;;;;;;;;;;5031451;28;20842;-87
2023/05/19 04:59:01;;;;;;;6.10;3.93;;;;;;;;;;5031402;28;20394;-87
2023/05/19 05:01:30;;;;;;;4.80;3.90;;;;;;;;;;5031232;28;20422;-87
2023/05/19 05:03:57;;;;;;;5.00;4.10;;;;;;;;;;5031416;28;21279;-88
2023/05/19 05:06:23;;;;;;;6.15;4.40;;;;;;;;;;5030887;28;20791;-86
2023/05/19 05:08:50;;;;;;;5.60;4.20;;;;;;;;;;5031379;28;20429;-87
2023/05/19 05:11:16;;;;;;;6.60;4.32;;;;;;;;;;5031334;28;20730;-87
2023/05/19 05:13:42;;;;;;;4.68;4.03;;;;;;;;;;5012762;28;20408;-87
2023/05/19 05:16:08;;;;;;;6.55;4.72;;;;;;;;;;5022519;28;21087;-86
2023/05/19 05:18:37;;;;;;;5.90;4.30;;;;;;;;;;5030642;28;20426;-87
2023/05/19 05:21:03;;;;;;;7.65;4.47;;;;;;;;;;5030777;28;20418;-87
2023/05/19 05:23:29;;;;;;;7.13;4.50;;;;;;;;;;5011764;28;20429;-85
2023/05/19 05:25:56;;;;;;;7.88;4.50;;;;;;;;;;5025385;28;20393;-84
2023/05/19 05:28:22;;;;;;;6.47;4.47;;;;;;;;;;5010943;28;20392;-86
2023/05/19 05:30:49;;;;;;;6.47;4.28;;;;;;;;;;5011105;28;20383;-86
2023/05/19 05:33:15;;;;;;;5.50;4.85;;;;;;;;;;5011399;28;20467;-86
2023/05/19 05:35:41;;;;;;;8.43;4.90;;;;;;;;;;5011314;28;20460;-86
2023/05/19 05:38:07;;;;;;;6.55;4.53;;;;;;;;;;5018221;28;20422;-85
2023/05/19 05:40:33;;;;;;;8.15;4.88;;;;;;;;;;5017246;28;20380;-86
2023/05/19 05:42:59;;;;;;;6.93;4.50;;;;;;;;;;5009737;28;20467;-87
2023/05/19 05:45:25;;;;;;;5.28;4.38;;;;;;;;;;5010845;28;20381;-87
2023/05/19 05:47:51;;;;;;;7.30;4.60;;;;;;;;;;5010775;28;20392;-86
2023/05/19 05:50:18;;;;;;;8.90;4.43;;;;;;;;;;5011348;28;20460;-86
2023/05/19 05:52:47;;;;;;;6.90;4.38;;;;;;;;;;5025241;28;20379;-87
2023/05/19 05:55:13;;;;;;;8.30;4.60;;;;;;;;;;5011194;28;20748;-86
2023/05/19 05:57:43;;;;;;;7.40;4.38;;;;;;;;;;5010452;28;20424;-87
2023/05/19 06:00:14;;;;;;;8.57;4.90;;;;;;;;;;5020986;28;20379;-87
2023/05/19 06:02:40;;;;;;;5.47;4.53;;;;;;;;;;5034648;28;20419;-87
2023/05/19 06:05:06;;;;;;;6.80;4.90;;;;;;;;;;5033419;28;20496;-86
2023/05/19 06:07:32;;;;;;;7.60;4.45;;;;;;;;;;5028824;28;20402;-86
2023/05/19 06:09:58;;;;;;;7.75;4.60;;;;;;;;;;5016720;28;20384;-86
2023/05/19 06:12:26;;;;;;;7.20;4.32;;;;;;;;;;5022931;28;20383;-86
2023/05/19 06:14:52;;;;;;;8.10;4.90;;;;;;;;;;5019751;28;20428;-87
2023/05/19 06:17:18;;;;;;;7.53;4.30;;;;;;;;;;5034177;28;20383;-87
2023/05/19 06:19:44;;;;;;;7.18;4.70;;;;;;;;;;5020203;28;20393;-85
2023/05/19 06:22:10;;;;;;;8.00;4.50;;;;;;;;;;5028858;28;20411;-86
2023/05/19 06:24:36;;;;;;;8.60;4.70;;;;;;;;;;5032084;28;20387;-86
2023/05/19 06:27:02;;;;;;;6.45;4.25;;;;;;;;;;5026679;28;20390;-86
2023/05/19 06:29:28;;;;;;;7.07;4.35;;;;;;;;;;5032136;28;21400;-87
2023/05/19 06:31:54;;;;;;;6.50;4.40;;;;;;;;;;5033818;28;20394;-86
2023/05/19 06:34:20;;;;;;;8.65;4.38;;;;;;;;;;5032567;28;20387;-87
2023/05/19 06:36:46;;;;;;;7.15;4.45;;;;;;;;;;5025970;28;20802;-87
2023/05/19 06:39:12;;;;;;;5.57;4.10;;;;;;;;;;5034468;28;20387;-91
2023/05/19 06:41:38;;;;;;;9.55;4.60;;;;;;;;;;5032852;28;20414;-91
2023/05/19 06:44:07;;;;;;;7.32;4.40;;;;;;;;;;5019897;28;20460;-88
2023/05/19 06:46:34;;;;;;;7.03;4.57;;;;;;;;;;5014231;28;20874;-90
2023/05/19 06:49:00;;;;;;;8.30;4.60;;;;;;;;;;5014773;28;20855;-87
2023/05/19 06:51:26;;;;;;;7.80;4.50;;;;;;;;;;5014275;28;20420;-87
2023/05/19 06:53:52;;;;;;;7.88;4.60;;;;;;;;;;5013795;28;20435;-88
2023/05/19 06:56:18;;;;;;;6.72;4.15;;;;;;;;;;5013600;28;20476;-91
2023/05/19 06:58:44;;;;;;;7.13;4.00;;;;;;;;;;5013891;28;20401;-87
2023/05/19 07:01:10;;;;;;;11.82;4.65;;;;;;;;;;5013925;28;20472;-88
2023/05/19 07:03:36;;;;;;;5.70;4.22;;;;;;;;;;5016894;28;20439;-89
2023/05/19 07:06:02;;;;;;;9.65;4.63;;;;;;;;;;5033289;28;20438;-87
2023/05/19 07:08:28;;;;;;;8.02;4.30;;;;;;;;;;5033167;28;20953;-89
2023/05/19 07:10:54;;;;;;;5.95;3.92;;;;;;;;;;5032054;28;20395;-85
2023/05/19 07:13:21;;;;;;;9.27;4.22;;;;;;;;;;5033547;28;20375;-87
2023/05/19 07:15:51;;;;;;;7.05;4.50;;;;;;;;;;5025706;28;20394;-89
2023/05/19 07:18:17;;;;;;;6.50;4.40;;;;;;;;;;5031034;28;20383;-87
2023/05/19 07:20:43;;;;;;;7.07;4.50;;;;;;;;;;5013664;28;20616;-86
2023/05/19 07:23:09;;;;;;;7.68;4.43;;;;;;;;;;5023087;28;20411;-85
2023/05/19 07:25:35;;;;;;;5.93;4.38;;;;;;;;;;5031440;28;20387;-87
2023/05/19 07:28:01;;;;;;;5.97;4.13;;;;;;;;;;5031149;28;20448;-88
2023/05/19 07:30:28;;;;;;;6.65;4.28;;;;;;;;;;5032798;28;20843;-86
2023/05/19 07:32:54;;;;;;;4.97;4.30;;;;;;;;;;5012837;28;20393;-86
2023/05/19 07:35:23;;;;;;;8.25;4.45;;;;;;;;;;5012588;28;20389;-84
2023/05/19 07:37:49;;;;;;;6.90;4.22;;;;;;;;;;5012732;28;20393;-86
2023/05/19 07:40:16;;;;;;;6.38;4.50;;;;;;;;;;5022468;28;20401;-85
2023/05/19 07:42:42;;;;;;;7.68;4.22;;;;;;;;;;5034745;28;20407;-84
2023/05/19 07:45:08;;;;;;;7.93;4.50;;;;;;;;;;5042053;28;20395;-84
2023/05/19 07:47:34;;;;;;;5.40;4.03;;;;;;;;;;5029470;28;20469;-85
2023/05/19 07:50:00;;;;;;;7.82;4.45;;;;;;;;;;5029223;28;20395;-87
2023/05/19 07:52:26;;;;;;;5.00;3.60;;;;;;;;;;5019530;28;20392;-85
2023/05/19 07:54:52;;;;;;;6.72;4.05;;;;;;;;;;5013647;28;20891;-87
2023/05/19 07:57:18;;;;;;;6.53;3.88;;;;;;;;;;5021493;28;20449;-87
2023/05/19 07:59:44;;;;;;;7.87;4.17;;;;;;;;;;5032550;28;20395;-86
2023/05/19 08:02:10;;;;;;;6.63;3.60;;;;;;;;;;5031104;28;21096;-85
2023/05/19 08:04:36;;;;;;;5.68;3.83;;;;;;;;;;5032248;28;20458;-86
2023/05/19 08:07:02;;;;;;;7.43;3.78;;;;;;;;;;5032381;28;20379;-87
2023/05/19 08:09:28;;;;;;;5.35;4.07;;;;;;;;;;5032589;28;20398;-88
2023/05/19 08:11:54;;;;;;;4.85;3.85;;;;;;;;;;5032880;28;20462;-87
2023/05/19 08:14:21;;;;;;;7.38;4.50;;;;;;;;;;5030768;28;20467;-91
2023/05/19 08:16:47;;;;;;;5.60;4.03;;;;;;;;;;5031051;28;20400;-88
2023/05/19 08:19:13;;;;;;;6.38;3.95;;;;;;;;;;5030986;28;20439;-88
2023/05/19 08:21:41;;;;;;;9.55;4.10;;;;;;;;;;5031505;28;20426;-88
2023/05/19 08:24:07;;;;;;;5.45;3.80;;;;;;;;;;5027000;28;20474;-87
2023/05/19 08:26:33;;;;;;;6.38;3.42;;;;;;;;;;5012267;28;20423;-90
2023/05/19 08:28:59;;;;;;;6.03;4.10;;;;;;;;;;5012693;28;20413;-87
2023/05/19 08:31:25;;;;;;;5.25;3.60;;;;;;;;;;5021611;28;20381;-86
2023/05/19 08:33:51;;;;;;;6.43;3.83;;;;;;;;;;5012425;28;20879;-90
2023/05/19 08:36:17;;;;;;;4.97;3.72;;;;;;;;;;5017805;28;20491;-91
2023/05/19 08:38:43;;;;;;;7.30;4.07;;;;;;;;;;5020297;28;20791;-87
2023/05/19 08:41:09;;;;;;;5.22;3.40;;;;;;;;;;5029244;28;20418;-87
2023/05/19 08:43:35;;;;;;;5.07;3.53;;;;;;;;;;5022038;28;20475;-88
2023/05/19 08:46:04;;;;;;;6.78;3.47;;;;;;;;;;5012131;28;20427;-87
2023/05/19 08:48:31;;;;;;;7.00;3.67;;;;;;;;;;5015393;28;20926;-88
2023/05/19 08:51:09;;;;;;;7.40;3.78;;;;;;;;;;5029078;28;20469;-88
2023/05/19 08:53:36;;;;;;;6.43;3.80;;;;;;;;;;5027644;28;20380;-88
2023/05/19 08:56:09;;;;;;;4.75;3.20;;;;;;;;;;5028290;28;20371;-86
2023/05/19 08:58:37;;;;;;;7.32;4.45;;;;;;;;;;5031442;28;20477;-88
2023/05/19 09:01:04;;;;;;;5.38;3.83;;;;;;;;;;5019694;28;20855;-86
2023/05/19 09:03:32;;;;;;;5.72;3.28;;;;;;;;;;5028575;28;20952;-87
2023/05/19 09:05:58;;;;;;;4.97;3.13;;;;;;;;;;5031294;28;20487;-87
2023/05/19 09:08:24;;;;;;;5.97;3.50;;;;;;;;;;5028068;28;20444;-85
2023/05/19 09:10:50;;;;;;;4.22;3.38;;;;;;;;;;5031533;28;20864;-85
2023/05/19 09:13:16;;;;;;;4.90;3.47;;;;;;;;;;5017461;28;20385;-89
2023/05/19 09:15:43;;;;;;;5.25;3.33;;;;;;;;;;5016521;28;20945;-83
2023/05/19 09:18:14;;;;;;;3.67;3.28;;;;;;;;;;5025492;28;20443;-85
2023/05/19 09:20:40;;;;;;;4.15;3.10;;;;;;;;;;5029599;28;20399;-85
2023/05/19 09:23:07;;;;;;;3.90;2.90;;;;;;;;;;5030826;28;20427;-85
2023/05/19 09:25:33;;;;;;;4.65;3.45;;;;;;;;;;5030931;28;20390;-82
2023/05/19 09:27:59;;;;;;;5.10;3.38;;;;;;;;;;5028894;28;20391;-83
2023/05/19 09:30:25;;;;;;;3.53;2.78;;;;;;;;;;5029430;28;20383;-82
2023/05/19 09:32:51;;;;;;;4.22;3.08;;;;;;;;;;5030917;28;20387;-83
2023/05/19 09:35:19;;;;;;;6.45;3.30;;;;;;;;;;5035020;28;20391;-83
2023/05/19 09:37:45;;;;;;;5.63;3.00;;;;;;;;;;5034970;28;20441;-82
2023/05/19 09:40:13;;;;;;;7.13;3.03;;;;;;;;;;5035544;28;20402;-83
2023/05/19 09:42:40;;;;;;;5.37;3.37;;;;;;;;;;5034797;28;20471;-82
2023/05/19 09:45:07;;;;;;;3.38;3.08;;;;;;;;;;5034949;28;20393;-82
2023/05/19 09:47:35;;;;;;;4.35;3.22;;;;;;;;;;5034922;28;20379;-82
2023/05/19 09:50:01;;;;;;;5.63;3.45;;;;;;;;;;5033617;28;20403;-82
2023/05/19 09:52:27;;;;;;;4.77;3.40;;;;;;;;;;5027109;28;20524;-82
2023/05/19 09:54:54;;;;;;;4.85;3.22;;;;;;;;;;5034661;28;20413;-82
2023/05/19 09:57:26;;;;;;;5.25;3.30;;;;;;;;;;5034445;28;20452;-82
2023/05/19 09:59:52;;;;;;;5.25;3.28;;;;;;;;;;5032171;28;20414;-82
2023/05/19 10:02:20;;;;;;;6.45;3.15;;;;;;;;;;5024399;28;20417;-82
2023/05/19 10:04:46;;;;;;;5.03;3.15;;;;;;;;;;5029186;28;20404;-82
2023/05/19 10:07:14;;;;;;;5.30;3.43;;;;;;;;;;5015234;28;20446;-83
2023/05/19 10:09:41;;;;;;;3.53;3.17;;;;;;;;;;5027202;28;20387;-82
2023/05/19 10:12:08;;;;;;;3.67;3.17;;;;;;;;;;5014842;28;20391;-82
2023/05/19 10:14:34;;;;;;;4.82;3.10;;;;;;;;;;5024263;28;20397;-82
2023/05/19 10:17:00;;;;;;;5.25;2.92;;;;;;;;;;5032868;28;20399;-83
2023/05/19 10:19:29;;;;;;;3.30;2.70;;;;;;;;;;5033229;28;20386;-82
2023/05/19 10:21:55;;;;;;;4.47;3.10;;;;;;;;;;5032917;28;20433;-82
2023/05/19 10:24:21;;;;;;;4.97;2.92;;;;;;;;;;5033156;28;20403;-82
2023/05/19 10:26:50;;;;;;;3.70;3.17;;;;;;;;;;5018982;28;20455;-82
2023/05/19 10:29:18;;;;;;;4.28;3.10;;;;;;;;;;5032594;28;20900;-82
2023/05/19 10:31:45;;;;;;;6.10;3.03;;;;;;;;;;5031151;28;20394;-82
2023/05/19 10:34:26;;;;;;;3.90;2.80;;;;;;;;;;5014809;28;20396;-83
2023/05/19 10:37:03;;;;;;;3.92;2.95;;;;;;;;;;5014042;28;20946;-83
2023/05/19 10:39:36;;;;;;;4.40;2.78;;;;;;;;;;5014420;28;20384;-82
2023/05/19 10:42:28;;;;;;;3.63;2.95;;;;;;;;;;5014383;28;20411;-82
2023/05/19 10:45:06;;;;;;;8.53;3.10;;;;;;;;;;5014828;28;20842;-82
2023/05/19 10:47:33;;;;;;;3.70;2.60;;;;;;;;;;5014364;28;20480;-82
2023/05/19 10:50:05;;;;;;;5.30;3.00;;;;;;;;;;5014505;28;20416;-82
2023/05/19 10:52:36;;;;;;;4.75;2.70;;;;;;;;;;5030460;28;20458;-82
2023/05/19 10:55:03;;;;;;;4.10;2.80;;;;;;;;;;5023158;28;20471;-82
2023/05/19 10:57:31;;;;;;;3.13;2.83;;;;;;;;;;5022049;28;20385;-82
2023/05/19 10:59:59;;;;;;;2.75;2.55;;;;;;;;;;5026132;28;20442;-83
2023/05/19 11:02:46;;;;;;;5.18;3.35;;;;;;;;;;5031697;28;20410;-83
2023/05/19 11:05:17;;;;;;;4.60;3.15;;;;;;;;;;5022274;28;20476;-82
2023/05/19 11:08:03;;;;;;;4.70;3.60;;;;;;;;;;5026877;28;20414;-82
2023/05/19 11:10:29;;;;;;;5.15;3.60;;;;;;;;;;5013435;28;20882;-81
2023/05/19 11:12:56;;;;;;;7.05;3.70;;;;;;;;;;5026147;28;20388;-81
2023/05/19 11:15:26;;;;;;;3.95;3.17;;;;;;;;;;5013616;28;20845;-82
2023/05/19 11:17:52;;;;;;;5.00;3.30;;;;;;;;;;5013620;28;20419;-81
2023/05/19 11:20:22;;;;;;;5.40;3.63;;;;;;;;;;5021566;28;20436;-85
2023/05/19 11:23:08;;;;;;;5.53;4.53;;;;;;;;;;5026243;28;20410;-83
2023/05/19 11:26:00;;;;;;;5.75;3.30;;;;;;;;;;5029911;28;20395;-84
2023/05/19 11:28:28;;;;;;;3.97;2.92;;;;;;;;;;5023404;28;20405;-83
2023/05/19 11:30:56;;;;;;;3.95;2.60;;;;;;;;;;5028601;28;20449;-83
2023/05/19 11:33:25;;;;;;;4.43;2.77;;;;;;;;;;5033097;28;20873;-82
2023/05/19 11:35:52;;;;;;;3.57;2.40;;;;;;;;;;5018041;28;20801;-82
2023/05/19 11:38:18;;;;;;;4.25;2.70;;;;;;;;;;5018854;28;20758;-83
2023/05/19 11:40:46;;;;;;;4.68;2.92;;;;;;;;;;5029045;28;20391;-82
2023/05/19 11:43:12;;;;;;;3.60;3.00;;;;;;;;;;5032882;28;20415;-82
2023/05/19 11:45:38;;;;;;;4.27;2.70;;;;;;;;;;5031883;28;20931;-82
2023/05/19 11:48:04;;;;;;;4.20;2.30;;;;;;;;;;5031503;28;20823;-82
2023/05/19 11:50:31;;;;;;;3.67;2.30;;;;;;;;;;5032609;28;20881;-84
2023/05/19 11:52:59;;;;;;;2.78;2.30;;;;;;;;;;5032820;28;20386;-83
2023/05/19 11:55:25;;;;;;;4.38;2.53;;;;;;;;;;5030863;28;20476;-85
2023/05/19 11:57:57;;;;;;;3.13;2.33;;;;;;;;;;5029862;28;20498;-84
2023/05/19 12:00:24;;;;;;;4.87;2.90;;;;;;;;;;5044249;28;20397;-83
2023/05/19 12:02:50;;;;;;;5.05;3.58;;;;;;;;;;5027961;28;20414;-83
2023/05/19 12:05:25;;;;;;;5.45;3.45;;;;;;;;;;5032639;28;20387;-83
2023/05/19 12:07:52;;;;;;;4.88;4.13;;;;;;;;;;5032325;28;20932;-82
2023/05/19 12:10:22;;;;;;;4.40;3.63;;;;;;;;;;5032686;28;20432;-84
2023/05/19 12:12:50;;;;;;;4.67;3.70;;;;;;;;;;5032305;28;20448;-84
2023/05/19 12:15:19;;;;;;;5.57;3.90;;;;;;;;;;5032188;28;20453;-84
2023/05/19 12:17:46;;;;;;;5.60;3.47;;;;;;;;;;5032445;28;20853;-83
2023/05/19 12:20:13;;;;;;;4.95;3.40;;;;;;;;;;5031621;28;20387;-85
2023/05/19 12:22:39;;;;;;;4.70;3.80;;;;;;;;;;5032042;28;20407;-84
2023/05/19 12:25:05;;;;;;;4.37;3.30;;;;;;;;;;5031310;28;20455;-83
2023/05/19 12:27:35;;;;;;;4.85;3.22;;;;;;;;;;5029396;28;21158;-84
2023/05/19 12:30:02;;;;;;;4.15;3.05;;;;;;;;;;5031980;28;20854;-84
2023/05/19 12:32:28;;;;;;;5.30;3.38;;;;;;;;;;5028838;28;20384;-83
2023/05/19 12:34:57;;;;;;;4.15;2.80;;;;;;;;;;5023906;28;20390;-85
2023/05/19 12:37:26;;;;;;;4.20;2.70;;;;;;;;;;5031263;28;20380;-84
2023/05/19 12:39:52;;;;;;;4.60;2.58;;;;;;;;;;5023275;28;20432;-84
2023/05/19 12:42:19;;;;;;;2.88;2.40;;;;;;;;;;5024897;28;20510;-84
2023/05/19 12:44:46;;;;;;;3.27;2.30;;;;;;;;;;5032096;28;20472;-84
2023/05/19 12:47:13;;;;;;;3.97;2.38;;;;;;;;;;5031488;28;20381;-84
2023/05/19 12:49:55;;;;;;;3.63;2.60;;;;;;;;;;5033870;28;20858;-84
2023/05/19 12:52:22;;;;;;;3.07;2.53;;;;;;;;;;5030554;28;20391;-84
2023/05/19 12:54:57;;;;;;;4.28;2.70;;;;;;;;;;5031348;28;20460;-84
2023/05/19 12:57:23;;;;;;;3.17;2.67;;;;;;;;;;5031776;28;20875;-84
2023/05/19 12:59:49;;;;;;;2.85;2.10;;;;;;;;;;5031607;28;20394;-84
2023/05/19 13:02:16;;;;;;;3.10;2.40;;;;;;;;;;5031662;28;20394;-84
2023/05/19 13:04:42;;;;;;;3.00;2.70;;;;;;;;;;5031796;28;20387;-85
2023/05/19 13:07:08;;;;;;;3.92;2.70;;;;;;;;;;5030501;28;20448;-85
2023/05/19 13:09:35;;;;;;;3.90;2.65;;;;;;;;;;5031633;28;20394;-84
2023/05/19 13:12:01;;;;;;;3.45;2.72;;;;;;;;;;5022555;28;20785;-84
2023/05/19 13:14:27;;;;;;;3.35;2.58;;;;;;;;;;5031091;28;20380;-85
2023/05/19 13:16:53;;;;;;;5.63;3.30;;;;;;;;;;5029540;28;20785;-85
2023/05/19 13:19:19;;;;;;;5.72;3.35;;;;;;;;;;5031681;28;20387;-85
2023/05/19 13:21:46;;;;;;;4.78;3.35;;;;;;;;;;5030009;28;20380;-84
2023/05/19 13:24:12;;;;;;;4.70;3.17;;;;;;;;;;5028735;28;20755;-84
2023/05/19 13:26:38;;;;;;;4.33;3.43;;;;;;;;;;5029914;28;20395;-83
2023/05/19 13:29:04;;;;;;;5.13;3.22;;;;;;;;;;5028675;28;20410;-83
2023/05/19 13:31:30;;;;;;;4.63;3.50;;;;;;;;;;5022765;28;20406;-84
2023/05/19 13:33:56;;;;;;;3.97;3.58;;;;;;;;;;5028162;28;20388;-83
2023/05/19 13:36:22;;;;;;;5.20;3.85;;;;;;;;;;5027399;28;20391;-82
2023/05/19 13:38:48;;;;;;;5.03;4.25;;;;;;;;;;5017374;28;20388;-82
2023/05/19 13:41:14;;;;;;;5.57;3.90;;;;;;;;;;5030819;28;20391;-83
2023/05/19 13:43:41;;;;;;;5.63;4.30;;;;;;;;;;5030895;28;20445;-83
2023/05/19 13:46:07;;;;;;;7.85;4.97;;;;;;;;;;5030627;28;20391;-83
2023/05/19 13:48:32;;;;;;;5.32;4.70;;;;;;;;;;5030614;28;20470;-83
2023/05/19 13:50:58;;;;;;;5.80;4.78;;;;;;;;;;5027326;28;20707;-82
2023/05/19 13:53:25;;;;;;;4.83;4.40;;;;;;;;;;5025578;28;20393;-83
2023/05/19 13:55:53;;;;;;;6.30;4.70;;;;;;;;;;5011270;28;20385;-83
2023/05/19 13:58:19;;;;;;;6.38;4.32;;;;;;;;;;5014795;28;20383;-83
2023/05/19 14:00:45;;;;;;;4.82;4.35;;;;;;;;;;5030924;28;20418;-84
2023/05/19 14:03:14;;;;;;;5.00;4.60;;;;;;;;;;5030503;28;20417;-84
2023/05/19 14:05:40;;;;;;;5.03;4.60;;;;;;;;;;5031074;28;20462;-84
2023/05/19 14:08:06;;;;;;;5.90;4.43;;;;;;;;;;5029397;28;20438;-85
2023/05/19 14:10:32;;;;;;;5.60;4.70;;;;;;;;;;5030362;28;20410;-82
2023/05/19 14:12:58;;;;;;;5.25;4.53;;;;;;;;;;5030647;28;20470;-83
2023/05/19 14:15:25;;;;;;;8.75;4.93;;;;;;;;;;5030462;28;20873;-84
2023/05/19 14:17:52;;;;;;;5.57;4.67;;;;;;;;;;5030757;28;20933;-84
2023/05/19 14:20:18;;;;;;;7.70;4.97;;;;;;;;;;5027876;28;20415;-84
2023/05/19 14:22:44;;;;;;;5.85;4.93;;;;;;;;;;5028702;28;20416;-83
2023/05/19 14:25:10;;;;;;;6.03;4.38;;;;;;;;;;5036243;28;20394;-84
2023/05/19 14:27:36;;;;;;;5.05;4.60;;;;;;;;;;5033842;28;22037;-85
2023/05/19 14:30:02;;;;;;;6.32;4.18;;;;;;;;;;5034147;28;20383;-84
2023/05/19 14:32:28;;;;;;;6.28;3.80;;;;;;;;;;5033745;28;20391;-84
2023/05/19 14:34:54;;;;;;;5.43;4.20;;;;;;;;;;5033557;28;20411;-84
2023/05/19 14:37:20;;;;;;;5.57;4.40;;;;;;;;;;5034283;28;20854;-83
2023/05/19 14:39:46;;;;;;;5.50;5.00;;;;;;;;;;5032651;28;20396;-84
2023/05/19 14:42:12;;;;;;;5.53;4.90;;;;;;;;;;5032598;28;20872;-83
2023/05/19 14:44:38;;;;;;;5.88;4.38;;;;;;;;;;5014488;28;20736;-84